Observations for CAGLIARI ELMAS, Italy (LIEE)

LIEE 191950Z 15008KT 9999 FEW020 22/19 Q1015
LIEE 191920Z 14010KT 9999 SCT020 22/19 Q1015
LIEE 191850Z 14009KT 9999 SCT020 22/19 Q1015
LIEE 191820Z 14009KT 9999 SCT020 22/19 Q1015
LIEE 191750Z 14010KT 9999 FEW015 SCT020 22/18 Q1015 
LIEE 191720Z 14010KT 9999 FEW015 SCT020 22/18 Q1015 
LIEE 191650Z 15009KT 9999 FEW015 SCT020 22/19 Q1014 
LIEE 191620Z 14011KT 9999 FEW015 SCT020 22/19 Q1014 
LIEE 191550Z 14010KT 9999 SCT025 23/18 Q1014
LIEE 191520Z 14011KT 9999 FEW025 23/19 Q1015
LIEE 191450Z 14013KT 9999 FEW020 23/18 Q1014
LIEE 191420Z 14013KT 9999 FEW020 24/19 Q1015
LIEE 191350Z 14013KT 9999 SCT020 24/19 Q1015
LIEE 191320Z 14013KT 9999 SCT025 24/18 Q1015
LIEE 191250Z 14011KT 9999 FEW018 SCT025 24/19 Q1015 
LIEE 191220Z 14010KT 9999 FEW016 SCT025 24/18 Q1015 
LIEE 191150Z 14010KT 9999 SCT020 24/18 Q1015
LIEE 191120Z 15008KT 120V180 9999 SCT020 24/18 Q1016
LIEE 191050Z 13010KT 9999 SCT030 24/18 Q1016
LIEE 191020Z 13010KT 9999 FEW030 24/17 Q1016
LIEE 190950Z 14008KT 9999 FEW030 23/18 Q1017
LIEE 190920Z 18004KT 130V240 9999 FEW030 23/18 Q1017
LIEE 190850Z 20003KT 150V230 9999 FEW030 21/16 Q1016
LIEE 190820Z VRB01KT 9999 FEW030 20/15 Q1017
LIEE 190750Z 33003KT 9999 FEW030 17/14 Q1017
LIEE 190720Z VRB02KT 9999 FEW030 16/13 Q1017
LIEE 190650Z 33003KT 9999 FEW030 15/13 Q1016
LIEE 190620Z 33005KT 9999 FEW030 14/13 Q1016
LIEE 190550Z 34003KT CAVOK 13/12 Q1016  
LIEE 190520Z 34004KT CAVOK 13/12 Q1016  
LIEE 190450Z 34004KT CAVOK 13/12 Q1016  
LIEE 190420Z 34004KT 9999 FEW015 13/12 Q1016
LIEE 190350Z 34004KT 9999 FEW015 14/13 Q1016
LIEE 190320Z 32004KT 9999 FEW020 14/13 Q1016
LIEE 190250Z 33005KT 9999 SCT020 14/13 Q1016
LIEE 190220Z 34004KT 9999 FEW020 14/13 Q1016
LIEE 190150Z 33006KT 9999 FEW020 14/13 Q1017
LIEE 190120Z 34006KT 9999 FEW020 15/13 Q1017
LIEE 190050Z 33006KT 9999 FEW020 15/13 Q1017
LIEE 190020Z 32006KT CAVOK 16/14 Q1017  
LIEE 182350Z 31003KT CAVOK 16/14 Q1017  
LIEE 182320Z 32004KT 9999 FEW020 16/14 Q1017
LIEE 182250Z 33005KT 9999 FEW020 16/14 Q1017
LIEE 182220Z 32005KT 9999 FEW020 17/14 Q1017
LIEE 182150Z 32004KT 9999 FEW020 18/14 Q1017
LIEE 182120Z 32003KT 9999 SCT020 19/16 Q1017
LIEE 182050Z VRB02KT 9999 SCT018 19/17 Q1018
LIEE 182020Z 33002KT 9999 FEW020 19/16 Q1017
LIEE 181950Z 15003KT 9999 FEW020 20/17 Q1017